Check out our new PWSWeather beta!
PWSweather.com
Personal Weather Stations
Station Observations
ROSEGARDEN
Rose Garden, Brentwood, CA 94513

Rose GardenBrentwood, CA 94513

Lat: 37.967503, Lon: -121.721004

Elevation: 89

Station Type: Davis Vantage Vue

High Low Average
Temperature 54.0°F12.2°C 45.6°F7.6°C 49.9°F9.9°C
Dew Point 51.0°F10.6°C -1.0°F-18.3°C 46.7°F8.2°C
Winds 11.5 mph 18.5 kmh 3.0 mph 4.8 kmh 8.0 mph SE12.9 kmh SE
Wind Gusts 28.0 mph45.1 kmh -- 18.0 mph29.0 kmh
Humidity 93% 83% 89%
Pressure 29.96 in1014.6 mb 29.85 in1010.8 mb -
Precipitation 0.36 in9.1 mm - -
Hour Temp Dew Point Humidity Winds Wind Gusts Pressure Precip Precip Rate Daily Precip Total
12:00 AM 46.1°F7.8°C 43.0°F6.1°C 87% 9.6 mph E15.4 kmh E 24.0 mph38.6 kmh 29.87 in1011.5 mb 0.00 in0.0 mm 0.00 in0.0 mm 0.00 in0.0 mm
12:10 AM 46.1°F7.8°C 43.0°F6.1°C 88% 10.0 mph ESE16.1 kmh ESE 24.0 mph38.6 kmh 29.87 in1011.5 mb 0.00 in0.0 mm 0.00 in0.0 mm 0.00 in0.0 mm
12:20 AM 46.0°F7.8°C 43.0°F6.1°C 88% 10.7 mph SE17.2 kmh SE 26.0 mph41.8 kmh 29.87 in1011.5 mb 0.00 in0.0 mm 0.00 in0.0 mm 0.00 in0.0 mm
12:30 AM 45.8°F7.7°C 43.0°F6.1°C 89% 10.4 mph SE16.7 kmh SE 22.0 mph35.4 kmh 29.86 in1011.2 mb 0.00 in0.0 mm 0.00 in0.0 mm 0.01 in0.3 mm
12:40 AM 45.8°F7.7°C 43.0°F6.1°C 89% 10.7 mph SE17.2 kmh SE 22.0 mph35.4 kmh 29.87 in1011.5 mb 0.00 in0.0 mm 0.00 in0.0 mm 0.01 in0.3 mm
12:50 AM 45.9°F7.7°C 43.0°F6.1°C 90% 10.9 mph E17.5 kmh E 21.0 mph33.8 kmh 29.86 in1011.2 mb 0.00 in0.0 mm 0.00 in0.0 mm 0.01 in0.3 mm
01:00 AM 45.8°F7.7°C 43.0°F6.1°C 90% 11.3 mph ESE18.2 kmh ESE 26.0 mph41.8 kmh 29.86 in1011.2 mb 0.00 in0.0 mm 0.00 in0.0 mm 0.02 in0.5 mm
01:10 AM 45.7°F7.6°C 43.0°F6.1°C 91% 11.5 mph S18.5 kmh S 25.0 mph40.2 kmh 29.86 in1011.2 mb 0.00 in0.0 mm 0.00 in0.0 mm 0.02 in0.5 mm
01:20 AM 45.7°F7.6°C 43.0°F6.1°C 91% 11.4 mph SE18.3 kmh SE 23.0 mph37.0 kmh 29.86 in1011.2 mb 0.04 in1.0 mm 0.24 in6.1 mm 0.03 in0.8 mm
01:30 AM 45.6°F7.6°C 43.0°F6.1°C 91% 10.9 mph SE17.5 kmh SE 23.0 mph37.0 kmh 29.85 in1010.8 mb 0.00 in0.0 mm 0.00 in0.0 mm 0.03 in0.8 mm
01:40 AM 45.8°F7.7°C 43.0°F6.1°C 91% 9.7 mph SE15.6 kmh SE 21.0 mph33.8 kmh 29.85 in1010.8 mb 0.00 in0.0 mm 0.00 in0.0 mm 0.03 in0.8 mm
01:50 AM 45.8°F7.7°C 43.0°F6.1°C 91% 9.2 mph SE14.8 kmh SE 19.0 mph30.6 kmh 29.85 in1010.8 mb 0.00 in0.0 mm 0.00 in0.0 mm 0.03 in0.8 mm
02:00 AM 45.7°F7.6°C 43.0°F6.1°C 91% 8.1 mph S13.0 kmh S 21.0 mph33.8 kmh 29.85 in1010.8 mb 0.00 in0.0 mm 0.00 in0.0 mm 0.04 in1.0 mm
02:10 AM 45.8°F7.7°C 43.0°F6.1°C 91% 11.0 mph SSE17.7 kmh SSE 25.0 mph40.2 kmh 29.85 in1010.8 mb 0.00 in0.0 mm 0.00 in0.0 mm 0.04 in1.0 mm
02:20 AM 45.9°F7.7°C 44.0°F6.7°C 91% 9.0 mph NE14.5 kmh NE 21.0 mph33.8 kmh 29.86 in1011.2 mb 0.00 in0.0 mm 0.00 in0.0 mm 0.04 in1.0 mm
02:30 AM 46.0°F7.8°C 44.0°F6.7°C 91% 8.7 mph S14.0 kmh S 20.0 mph32.2 kmh 29.86 in1011.2 mb 0.00 in0.0 mm 0.00 in0.0 mm 0.04 in1.0 mm
02:40 AM 46.2°F7.9°C 44.0°F6.7°C 91% 9.1 mph SE14.6 kmh SE 20.0 mph32.2 kmh 29.86 in1011.2 mb 0.00 in0.0 mm 0.00 in0.0 mm 0.04 in1.0 mm
02:50 AM 46.2°F7.9°C 44.0°F6.7°C 91% 8.1 mph SE13.0 kmh SE 19.0 mph30.6 kmh 29.87 in1011.5 mb 0.00 in0.0 mm 0.00 in0.0 mm 0.04 in1.0 mm
03:00 AM 46.3°F7.9°C 44.0°F6.7°C 90% 9.2 mph SE14.8 kmh SE 25.0 mph40.2 kmh 29.87 in1011.5 mb 0.00 in0.0 mm 0.00 in0.0 mm 0.04 in1.0 mm
03:10 AM 46.4°F8.0°C 44.0°F6.7°C 90% 7.5 mph SE12.1 kmh SE 16.0 mph25.7 kmh 29.86 in1011.2 mb 0.00 in0.0 mm 0.00 in0.0 mm 0.04 in1.0 mm
03:20 AM 46.5°F8.1°C 44.0°F6.7°C 91% 7.7 mph SSE12.4 kmh SSE 16.0 mph25.7 kmh 29.87 in1011.5 mb 0.00 in0.0 mm 0.00 in0.0 mm 0.04 in1.0 mm
03:30 AM 46.5°F8.1°C 44.0°F6.7°C 91% 7.9 mph ESE12.7 kmh ESE 16.0 mph25.7 kmh 29.87 in1011.5 mb 0.00 in0.0 mm 0.00 in0.0 mm 0.04 in1.0 mm
03:40 AM 46.4°F8.0°C 44.0°F6.7°C 91% 7.1 mph SSW11.4 kmh SSW 17.0 mph27.4 kmh 29.87 in1011.5 mb 0.00 in0.0 mm 0.00 in0.0 mm 0.05 in1.3 mm
03:50 AM 46.5°F8.1°C 44.0°F6.7°C 91% 8.5 mph SE13.7 kmh SE 20.0 mph32.2 kmh 29.87 in1011.5 mb 0.00 in0.0 mm 0.00 in0.0 mm 0.05 in1.3 mm
04:00 AM 46.5°F8.1°C 44.0°F6.7°C 92% 6.4 mph SE10.3 kmh SE 20.0 mph32.2 kmh 29.87 in1011.5 mb 0.00 in0.0 mm 0.00 in0.0 mm 0.06 in1.5 mm
04:10 AM 46.6°F8.1°C 44.0°F6.7°C 92% 7.6 mph ESE12.2 kmh ESE 18.0 mph29.0 kmh 29.87 in1011.5 mb 0.00 in0.0 mm 0.00 in0.0 mm 0.06 in1.5 mm
04:20 AM 46.7°F8.2°C 45.0°F7.2°C 92% 8.4 mph SSE13.5 kmh SSE 20.0 mph32.2 kmh 29.87 in1011.5 mb 0.04 in1.0 mm 0.24 in6.1 mm 0.07 in1.8 mm
04:30 AM 46.7°F8.2°C 45.0°F7.2°C 92% 7.3 mph S11.7 kmh S 19.0 mph30.6 kmh 29.86 in1011.2 mb 0.05 in1.3 mm 0.06 in1.5 mm 0.08 in2.0 mm
04:40 AM 46.9°F8.3°C 45.0°F7.2°C 92% 9.9 mph SE15.9 kmh SE 20.0 mph32.2 kmh 29.87 in1011.5 mb 0.04 in1.0 mm 0.00 in0.0 mm 0.08 in2.0 mm
04:50 AM 47.2°F8.4°C 45.0°F7.2°C 92% 8.4 mph SE13.5 kmh SE 17.0 mph27.4 kmh 29.87 in1011.5 mb 0.00 in0.0 mm 0.00 in0.0 mm 0.08 in2.0 mm
05:00 AM 47.4°F8.6°C 45.0°F7.2°C 91% 7.4 mph SE11.9 kmh SE 17.0 mph27.4 kmh 29.87 in1011.5 mb 0.00 in0.0 mm 0.00 in0.0 mm 0.08 in2.0 mm
05:10 AM 47.8°F8.8°C 45.0°F7.2°C 90% 8.7 mph SE14.0 kmh SE 20.0 mph32.2 kmh 29.87 in1011.5 mb 0.00 in0.0 mm 0.00 in0.0 mm 0.08 in2.0 mm
05:20 AM 48.4°F9.1°C 45.0°F7.2°C 89% 8.1 mph S13.0 kmh S 18.0 mph29.0 kmh 29.87 in1011.5 mb 0.00 in0.0 mm 0.00 in0.0 mm 0.08 in2.0 mm
05:30 AM 48.9°F9.4°C 46.0°F7.8°C 88% 8.2 mph S13.2 kmh S 22.0 mph35.4 kmh 29.86 in1011.2 mb 0.00 in0.0 mm 0.00 in0.0 mm 0.08 in2.0 mm
05:40 AM 49.2°F9.6°C 46.0°F7.8°C 88% 8.1 mph E13.0 kmh E 18.0 mph29.0 kmh 29.87 in1011.5 mb 0.00 in0.0 mm 0.00 in0.0 mm 0.08 in2.0 mm
05:50 AM 49.2°F9.6°C 46.0°F7.8°C 88% 7.9 mph E12.7 kmh E 17.0 mph27.4 kmh 29.87 in1011.5 mb 0.00 in0.0 mm 0.00 in0.0 mm 0.08 in2.0 mm
06:00 AM 49.1°F9.5°C 46.0°F7.8°C 89% 7.9 mph SE12.7 kmh SE 18.0 mph29.0 kmh 29.86 in1011.2 mb 0.00 in0.0 mm 0.00 in0.0 mm 0.09 in2.3 mm
06:10 AM 49.2°F9.6°C 46.0°F7.8°C 89% 9.1 mph SE14.6 kmh SE 17.0 mph27.4 kmh 29.86 in1011.2 mb 0.00 in0.0 mm 0.00 in0.0 mm 0.10 in2.5 mm
06:20 AM 49.4°F9.7°C 46.0°F7.8°C 88% 8.1 mph ESE13.0 kmh ESE 17.0 mph27.4 kmh 29.87 in1011.5 mb 0.00 in0.0 mm 0.00 in0.0 mm 0.10 in2.5 mm
06:30 AM 49.5°F9.7°C 46.0°F7.8°C 89% 9.1 mph SE14.6 kmh SE 22.0 mph35.4 kmh 29.87 in1011.5 mb 0.00 in0.0 mm 0.00 in0.0 mm 0.10 in2.5 mm
06:40 AM 49.8°F9.9°C 47.0°F8.3°C 89% 8.7 mph SE14.0 kmh SE 18.0 mph29.0 kmh 29.87 in1011.5 mb 0.00 in0.0 mm 0.00 in0.0 mm 0.10 in2.5 mm
06:50 AM 50.2°F10.1°C 47.0°F8.3°C 88% 7.9 mph SSE12.7 kmh SSE 23.0 mph37.0 kmh 29.87 in1011.5 mb 0.00 in0.0 mm 0.00 in0.0 mm 0.10 in2.5 mm
07:00 AM 50.4°F10.2°C 47.0°F8.3°C 87% 8.5 mph SE13.7 kmh SE 24.0 mph38.6 kmh 29.87 in1011.5 mb 0.00 in0.0 mm 0.00 in0.0 mm 0.10 in2.5 mm
07:10 AM 50.1°F10.1°C 47.0°F8.3°C 88% 10.1 mph SE16.3 kmh SE 22.0 mph35.4 kmh 29.87 in1011.5 mb 0.00 in0.0 mm 0.00 in0.0 mm 0.10 in2.5 mm
07:20 AM 50.1°F10.1°C 47.0°F8.3°C 88% 7.8 mph SSE12.6 kmh SSE 15.0 mph24.1 kmh 29.87 in1011.5 mb 0.00 in0.0 mm 0.00 in0.0 mm 0.10 in2.5 mm
07:30 AM 50.3°F10.2°C 47.0°F8.3°C 88% 8.9 mph SE14.3 kmh SE 20.0 mph32.2 kmh 29.87 in1011.5 mb 0.00 in0.0 mm 0.00 in0.0 mm 0.10 in2.5 mm
07:40 AM 50.2°F10.1°C 47.0°F8.3°C 88% 8.9 mph SE14.3 kmh SE 21.0 mph33.8 kmh 29.88 in1011.9 mb 0.00 in0.0 mm 0.00 in0.0 mm 0.11 in2.8 mm
07:50 AM 50.2°F10.1°C 47.0°F8.3°C 88% 8.2 mph SE13.2 kmh SE 18.0 mph29.0 kmh 29.88 in1011.9 mb 0.00 in0.0 mm 0.00 in0.0 mm 0.11 in2.8 mm
08:00 AM 50.0°F10.0°C 47.0°F8.3°C 88% 7.8 mph S12.6 kmh S 16.0 mph25.7 kmh 29.88 in1011.9 mb 0.00 in0.0 mm 0.00 in0.0 mm 0.11 in2.8 mm
08:10 AM 50.0°F10.0°C 47.0°F8.3°C 88% 7.8 mph SSE12.6 kmh SSE 18.0 mph29.0 kmh 29.88 in1011.9 mb 0.00 in0.0 mm 0.00 in0.0 mm 0.11 in2.8 mm
08:20 AM 49.9°F9.9°C 47.0°F8.3°C 88% 7.6 mph SE12.2 kmh SE 18.0 mph29.0 kmh 29.89 in1012.2 mb 0.17 in4.3 mm 1.02 in25.9 mm 0.13 in3.3 mm
08:30 AM 50.0°F10.0°C 47.0°F8.3°C 88% 8.2 mph ENE13.2 kmh ENE 20.0 mph32.2 kmh 29.89 in1012.2 mb 0.04 in1.0 mm 0.00 in0.0 mm 0.13 in3.3 mm
08:40 AM 50.1°F10.1°C 46.0°F7.8°C 87% 9.5 mph S15.3 kmh S 21.0 mph33.8 kmh 29.89 in1012.2 mb 0.00 in0.0 mm 0.00 in0.0 mm 0.13 in3.3 mm
08:50 AM 50.2°F10.1°C 47.0°F8.3°C 87% 7.9 mph SE12.7 kmh SE 18.0 mph29.0 kmh 29.89 in1012.2 mb 0.00 in0.0 mm 0.00 in0.0 mm 0.13 in3.3 mm
09:00 AM 50.5°F10.3°C 47.0°F8.3°C 86% 8.2 mph SSE13.2 kmh SSE 21.0 mph33.8 kmh 29.89 in1012.2 mb 0.00 in0.0 mm 0.00 in0.0 mm 0.13 in3.3 mm
09:10 AM 51.0°F10.6°C 46.0°F7.8°C 84% 9.0 mph SSE14.5 kmh SSE 18.0 mph29.0 kmh 29.89 in1012.2 mb 0.00 in0.0 mm 0.00 in0.0 mm 0.13 in3.3 mm
09:20 AM 51.2°F10.7°C 47.0°F8.3°C 84% 8.0 mph NW12.9 kmh NW 19.0 mph30.6 kmh 29.89 in1012.2 mb 0.00 in0.0 mm 0.00 in0.0 mm 0.13 in3.3 mm
09:30 AM 51.4°F10.8°C 46.0°F7.8°C 83% 5.8 mph SSE9.3 kmh SSE 19.0 mph30.6 kmh 29.89 in1012.2 mb 0.00 in0.0 mm 0.00 in0.0 mm 0.13 in3.3 mm
09:40 AM 51.5°F10.8°C 47.0°F8.3°C 83% 6.8 mph E10.9 kmh E 18.0 mph29.0 kmh 29.89 in1012.2 mb 0.00 in0.0 mm 0.00 in0.0 mm 0.13 in3.3 mm
09:50 AM 51.4°F10.8°C 46.0°F7.8°C 83% 7.9 mph SE12.7 kmh SE 16.0 mph25.7 kmh 29.90 in1012.5 mb 0.00 in0.0 mm 0.00 in0.0 mm 0.13 in3.3 mm
10:00 AM 51.5°F10.8°C 47.0°F8.3°C 84% 8.6 mph SSE13.8 kmh SSE 19.0 mph30.6 kmh 29.90 in1012.5 mb 0.00 in0.0 mm 0.00 in0.0 mm 0.13 in3.3 mm
10:10 AM 51.3°F10.7°C 47.0°F8.3°C 84% 8.7 mph SE14.0 kmh SE 18.0 mph29.0 kmh 29.90 in1012.5 mb 0.00 in0.0 mm 0.00 in0.0 mm 0.13 in3.3 mm
10:20 AM 51.2°F10.7°C 47.0°F8.3°C 85% 8.7 mph SE14.0 kmh SE 17.0 mph27.4 kmh 29.90 in1012.5 mb 0.00 in0.0 mm 0.00 in0.0 mm 0.13 in3.3 mm
10:30 AM 51.3°F10.7°C 47.0°F8.3°C 85% 7.6 mph SSE12.2 kmh SSE 18.0 mph29.0 kmh 29.91 in1012.9 mb 0.00 in0.0 mm 0.00 in0.0 mm 0.13 in3.3 mm
10:40 AM 51.5°F10.8°C 48.0°F8.9°C 86% 7.7 mph ESE12.4 kmh ESE 16.0 mph25.7 kmh 29.90 in1012.5 mb 0.00 in0.0 mm 0.00 in0.0 mm 0.13 in3.3 mm
10:50 AM 51.7°F10.9°C 48.0°F8.9°C 86% 7.5 mph SE12.1 kmh SE 28.0 mph45.1 kmh 29.90 in1012.5 mb 0.00 in0.0 mm 0.00 in0.0 mm 0.13 in3.3 mm
11:00 AM 51.7°F10.9°C 48.0°F8.9°C 87% 9.5 mph SSE15.3 kmh SSE 18.0 mph29.0 kmh 29.90 in1012.5 mb 0.00 in0.0 mm 0.00 in0.0 mm 0.13 in3.3 mm
11:10 AM 51.9°F11.1°C 48.0°F8.9°C 87% 8.5 mph SE13.7 kmh SE 19.0 mph30.6 kmh 29.90 in1012.5 mb 0.00 in0.0 mm 0.00 in0.0 mm 0.14 in3.6 mm
11:20 AM 51.7°F10.9°C 49.0°F9.4°C 89% 7.1 mph SE11.4 kmh SE 14.0 mph22.5 kmh 29.90 in1012.5 mb 0.07 in1.8 mm 0.42 in10.7 mm 0.15 in3.8 mm
11:30 AM 51.9°F11.1°C 49.0°F9.4°C 90% 6.2 mph S10.0 kmh S 13.0 mph20.9 kmh 29.90 in1012.5 mb 0.30 in7.6 mm 1.38 in35.1 mm 0.18 in4.6 mm
11:40 AM 52.3°F11.3°C 50.0°F10.0°C 91% 5.8 mph SE9.3 kmh SE 14.0 mph22.5 kmh 29.90 in1012.5 mb 0.05 in1.3 mm 0.00 in0.0 mm 0.18 in4.6 mm
11:50 AM 52.8°F11.6°C 50.0°F10.0°C 90% 7.2 mph SE11.6 kmh SE 18.0 mph29.0 kmh 29.90 in1012.5 mb 0.05 in1.3 mm 0.00 in0.0 mm 0.19 in4.8 mm
12:00 PM 53.5°F11.9°C 50.0°F10.0°C 88% 9.4 mph SE15.1 kmh SE 22.0 mph35.4 kmh 29.90 in1012.5 mb 0.00 in0.0 mm 0.00 in0.0 mm 0.19 in4.8 mm
12:10 PM 53.7°F12.1°C 50.0°F10.0°C 88% 7.0 mph SSE11.3 kmh SSE 19.0 mph30.6 kmh 29.89 in1012.2 mb 0.00 in0.0 mm 0.00 in0.0 mm 0.20 in5.1 mm
12:20 PM 54.0°F12.2°C 51.0°F10.6°C 88% 7.5 mph SE12.1 kmh SE 16.0 mph25.7 kmh 29.89 in1012.2 mb 0.00 in0.0 mm 0.00 in0.0 mm 0.20 in5.1 mm
12:30 PM 54.0°F12.2°C 51.0°F10.6°C 88% 7.7 mph ESE12.4 kmh ESE 18.0 mph29.0 kmh 29.89 in1012.2 mb 0.00 in0.0 mm 0.00 in0.0 mm 0.21 in5.3 mm
12:40 PM 53.3°F11.8°C 50.0°F10.0°C 88% 5.4 mph SE8.7 kmh SE 21.0 mph33.8 kmh 29.88 in1011.9 mb 0.00 in0.0 mm 0.00 in0.0 mm 0.21 in5.3 mm
12:50 PM 52.3°F11.3°C 49.0°F9.4°C 89% 6.4 mph SSE10.3 kmh SSE 16.0 mph25.7 kmh 29.88 in1011.9 mb 0.00 in0.0 mm 0.00 in0.0 mm 0.21 in5.3 mm
01:00 PM 51.3°F10.7°C -1.0°F-18.3°C 90% - E E -- 29.87 in1011.5 mb 0.15 in3.8 mm 0.18 in4.6 mm 0.24 in6.1 mm
01:10 PM 51.1°F10.6°C 48.0°F8.9°C 90% 8.1 mph SSE13.0 kmh SSE 17.0 mph27.4 kmh 29.87 in1011.5 mb 0.07 in1.8 mm 0.00 in0.0 mm 0.25 in6.4 mm
01:20 PM 50.9°F10.5°C 48.0°F8.9°C 90% 8.3 mph S13.4 kmh S 22.0 mph35.4 kmh 29.87 in1011.5 mb 0.00 in0.0 mm 0.00 in0.0 mm 0.25 in6.4 mm
01:30 PM 50.8°F10.4°C 48.0°F8.9°C 91% 8.4 mph SSE13.5 kmh SSE 17.0 mph27.4 kmh 29.86 in1011.2 mb 0.00 in0.0 mm 0.00 in0.0 mm 0.26 in6.6 mm
01:40 PM 50.8°F10.4°C 48.0°F8.9°C 91% 8.8 mph SE14.2 kmh SE 18.0 mph29.0 kmh 29.86 in1011.2 mb 0.07 in1.8 mm 0.42 in10.7 mm 0.27 in6.9 mm
01:50 PM 50.8°F10.4°C 48.0°F8.9°C 91% 7.0 mph E11.3 kmh E 20.0 mph32.2 kmh 29.86 in1011.2 mb 0.04 in1.0 mm 0.00 in0.0 mm 0.28 in7.1 mm
02:00 PM 50.6°F10.3°C 48.0°F8.9°C 91% 7.5 mph E12.1 kmh E 20.0 mph32.2 kmh 29.86 in1011.2 mb 0.07 in1.8 mm 0.04 in1.0 mm 0.29 in7.4 mm
02:10 PM 50.6°F10.3°C 48.0°F8.9°C 91% 7.6 mph NE12.2 kmh NE 25.0 mph40.2 kmh 29.86 in1011.2 mb 0.05 in1.3 mm 0.00 in0.0 mm 0.29 in7.4 mm
02:20 PM 50.6°F10.3°C 48.0°F8.9°C 91% 8.2 mph SE13.2 kmh SE 17.0 mph27.4 kmh 29.85 in1010.8 mb 0.00 in0.0 mm 0.00 in0.0 mm 0.30 in7.6 mm
02:30 PM 50.7°F10.4°C 48.0°F8.9°C 91% 8.2 mph SE13.2 kmh SE 21.0 mph33.8 kmh 29.86 in1011.2 mb 0.00 in0.0 mm 0.00 in0.0 mm 0.30 in7.6 mm
02:40 PM 50.8°F10.4°C 48.0°F8.9°C 91% 8.9 mph SSE14.3 kmh SSE 23.0 mph37.0 kmh 29.86 in1011.2 mb 0.00 in0.0 mm 0.00 in0.0 mm 0.30 in7.6 mm
02:50 PM 50.8°F10.4°C 48.0°F8.9°C 91% 8.4 mph S13.5 kmh S 26.0 mph41.8 kmh 29.86 in1011.2 mb 0.00 in0.0 mm 0.00 in0.0 mm 0.30 in7.6 mm
03:00 PM 50.6°F10.3°C 48.0°F8.9°C 91% 8.3 mph S13.4 kmh S 18.0 mph29.0 kmh 29.86 in1011.2 mb 0.00 in0.0 mm 0.00 in0.0 mm 0.30 in7.6 mm
03:10 PM 50.6°F10.3°C 48.0°F8.9°C 90% 9.1 mph ESE14.6 kmh ESE 25.0 mph40.2 kmh 29.86 in1011.2 mb 0.00 in0.0 mm 0.00 in0.0 mm 0.30 in7.6 mm
03:20 PM 50.6°F10.3°C 48.0°F8.9°C 90% 9.9 mph SSE15.9 kmh SSE 20.0 mph32.2 kmh 29.87 in1011.5 mb 0.00 in0.0 mm 0.00 in0.0 mm 0.30 in7.6 mm
03:30 PM 50.8°F10.4°C 48.0°F8.9°C 90% 9.9 mph SE15.9 kmh SE 23.0 mph37.0 kmh 29.87 in1011.5 mb 0.00 in0.0 mm 0.00 in0.0 mm 0.30 in7.6 mm
03:40 PM 50.8°F10.4°C 48.0°F8.9°C 90% 8.3 mph ESE13.4 kmh ESE 18.0 mph29.0 kmh 29.87 in1011.5 mb 0.00 in0.0 mm 0.00 in0.0 mm 0.30 in7.6 mm
03:50 PM 50.8°F10.4°C 48.0°F8.9°C 89% 8.8 mph SSE14.2 kmh SSE 20.0 mph32.2 kmh 29.87 in1011.5 mb 0.00 in0.0 mm 0.00 in0.0 mm 0.30 in7.6 mm
04:00 PM 50.8°F10.4°C 48.0°F8.9°C 89% 7.6 mph SE12.2 kmh SE 18.0 mph29.0 kmh 29.88 in1011.9 mb 0.00 in0.0 mm 0.00 in0.0 mm 0.30 in7.6 mm
04:10 PM 50.8°F10.4°C 48.0°F8.9°C 90% 7.7 mph E12.4 kmh E 20.0 mph32.2 kmh 29.87 in1011.5 mb 0.00 in0.0 mm 0.00 in0.0 mm 0.30 in7.6 mm
04:20 PM 50.7°F10.4°C 48.0°F8.9°C 90% 7.6 mph SSE12.2 kmh SSE 19.0 mph30.6 kmh 29.87 in1011.5 mb 0.00 in0.0 mm 0.00 in0.0 mm 0.30 in7.6 mm
04:30 PM 50.6°F10.3°C 48.0°F8.9°C 90% 5.5 mph SE8.9 kmh SE 11.0 mph17.7 kmh 29.88 in1011.9 mb 0.00 in0.0 mm 0.00 in0.0 mm 0.31 in7.9 mm
04:40 PM 50.7°F10.4°C 48.0°F8.9°C 90% 6.4 mph SE10.3 kmh SE 14.0 mph22.5 kmh 29.87 in1011.5 mb 0.00 in0.0 mm 0.00 in0.0 mm 0.31 in7.9 mm
04:50 PM 50.7°F10.4°C 48.0°F8.9°C 90% 7.3 mph SE11.7 kmh SE 15.0 mph24.1 kmh 29.88 in1011.9 mb 0.00 in0.0 mm 0.00 in0.0 mm 0.31 in7.9 mm
05:00 PM 50.8°F10.4°C 48.0°F8.9°C 90% 7.9 mph SE12.7 kmh SE 15.0 mph24.1 kmh 29.88 in1011.9 mb 0.00 in0.0 mm 0.00 in0.0 mm 0.31 in7.9 mm
05:10 PM 51.1°F10.6°C 48.0°F8.9°C 89% 7.5 mph SE12.1 kmh SE 19.0 mph30.6 kmh 29.88 in1011.9 mb 0.00 in0.0 mm 0.00 in0.0 mm 0.31 in7.9 mm
05:20 PM 51.1°F10.6°C 47.0°F8.3°C 87% 7.5 mph S12.1 kmh S 18.0 mph29.0 kmh 29.89 in1012.2 mb 0.00 in0.0 mm 0.00 in0.0 mm 0.31 in7.9 mm
05:30 PM 51.1°F10.6°C 47.0°F8.3°C 87% 7.6 mph E12.2 kmh E 18.0 mph29.0 kmh 29.88 in1011.9 mb 0.00 in0.0 mm 0.00 in0.0 mm 0.31 in7.9 mm
05:40 PM 51.0°F10.6°C 48.0°F8.9°C 88% 7.2 mph SSE11.6 kmh SSE 25.0 mph40.2 kmh 29.89 in1012.2 mb 0.00 in0.0 mm 0.00 in0.0 mm 0.31 in7.9 mm
05:50 PM 50.9°F10.5°C 48.0°F8.9°C 88% 7.3 mph SE11.7 kmh SE 19.0 mph30.6 kmh 29.89 in1012.2 mb 0.00 in0.0 mm 0.00 in0.0 mm 0.31 in7.9 mm
06:00 PM 50.9°F10.5°C 47.0°F8.3°C 88% 6.1 mph NE9.8 kmh NE 16.0 mph25.7 kmh 29.89 in1012.2 mb 0.00 in0.0 mm 0.00 in0.0 mm 0.31 in7.9 mm
06:10 PM 51.1°F10.6°C 48.0°F8.9°C 88% 8.4 mph SSE13.5 kmh SSE 17.0 mph27.4 kmh 29.89 in1012.2 mb 0.00 in0.0 mm 0.00 in0.0 mm 0.31 in7.9 mm
06:20 PM 51.3°F10.7°C 48.0°F8.9°C 87% 9.5 mph S15.3 kmh S 19.0 mph30.6 kmh 29.89 in1012.2 mb 0.00 in0.0 mm 0.00 in0.0 mm 0.31 in7.9 mm
06:30 PM 51.4°F10.8°C 48.0°F8.9°C 87% 7.4 mph S11.9 kmh S 18.0 mph29.0 kmh 29.90 in1012.5 mb 0.00 in0.0 mm 0.00 in0.0 mm 0.31 in7.9 mm
06:40 PM 51.4°F10.8°C 48.0°F8.9°C 87% 8.5 mph ESE13.7 kmh ESE 17.0 mph27.4 kmh 29.90 in1012.5 mb 0.00 in0.0 mm 0.00 in0.0 mm 0.31 in7.9 mm
06:50 PM 51.4°F10.8°C 48.0°F8.9°C 88% 7.8 mph ENE12.6 kmh ENE 17.0 mph27.4 kmh 29.89 in1012.2 mb 0.00 in0.0 mm 0.00 in0.0 mm 0.31 in7.9 mm
07:00 PM 51.3°F10.7°C 48.0°F8.9°C 89% 6.6 mph S10.6 kmh S 18.0 mph29.0 kmh 29.89 in1012.2 mb 0.00 in0.0 mm 0.00 in0.0 mm 0.31 in7.9 mm
07:10 PM 51.1°F10.6°C 48.0°F8.9°C 89% 5.8 mph SSE9.3 kmh SSE 13.0 mph20.9 kmh 29.91 in1012.9 mb 0.00 in0.0 mm 0.00 in0.0 mm 0.31 in7.9 mm
07:20 PM 51.0°F10.6°C 48.0°F8.9°C 90% 6.4 mph S10.3 kmh S 15.0 mph24.1 kmh 29.91 in1012.9 mb 0.00 in0.0 mm 0.00 in0.0 mm 0.32 in8.1 mm
07:30 PM 51.0°F10.6°C 48.0°F8.9°C 90% 7.8 mph SSE12.6 kmh SSE 17.0 mph27.4 kmh 29.90 in1012.5 mb 0.00 in0.0 mm 0.00 in0.0 mm 0.32 in8.1 mm
07:40 PM 51.0°F10.6°C 48.0°F8.9°C 89% 8.3 mph S13.4 kmh S 15.0 mph24.1 kmh 29.91 in1012.9 mb 0.00 in0.0 mm 0.00 in0.0 mm 0.33 in8.4 mm
07:50 PM 50.9°F10.5°C 48.0°F8.9°C 89% 6.8 mph N10.9 kmh N 16.0 mph25.7 kmh 29.91 in1012.9 mb 0.00 in0.0 mm 0.00 in0.0 mm 0.33 in8.4 mm
08:00 PM 50.8°F10.4°C 48.0°F8.9°C 90% 7.1 mph SE11.4 kmh SE 15.0 mph24.1 kmh 29.92 in1013.2 mb 0.00 in0.0 mm 0.00 in0.0 mm 0.33 in8.4 mm
08:10 PM 50.9°F10.5°C 48.0°F8.9°C 90% 6.5 mph S10.5 kmh S 15.0 mph24.1 kmh 29.92 in1013.2 mb 0.00 in0.0 mm 0.00 in0.0 mm 0.33 in8.4 mm
08:20 PM 50.9°F10.5°C 48.0°F8.9°C 90% 6.8 mph SE10.9 kmh SE 15.0 mph24.1 kmh 29.92 in1013.2 mb 0.00 in0.0 mm 0.00 in0.0 mm 0.33 in8.4 mm
08:30 PM 50.9°F10.5°C 48.0°F8.9°C 91% 6.6 mph SE10.6 kmh SE 15.0 mph24.1 kmh 29.93 in1013.5 mb 0.00 in0.0 mm 0.00 in0.0 mm 0.33 in8.4 mm
08:40 PM 51.0°F10.6°C 49.0°F9.4°C 91% 4.8 mph E7.7 kmh E 13.0 mph20.9 kmh 29.93 in1013.5 mb 0.00 in0.0 mm 0.00 in0.0 mm 0.33 in8.4 mm
08:50 PM 51.1°F10.6°C 49.0°F9.4°C 91% 4.4 mph ESE7.1 kmh ESE 12.0 mph19.3 kmh 29.93 in1013.5 mb 0.00 in0.0 mm 0.00 in0.0 mm 0.33 in8.4 mm
09:00 PM 51.4°F10.8°C 49.0°F9.4°C 91% 4.4 mph ESE7.1 kmh ESE 12.0 mph19.3 kmh 29.93 in1013.5 mb 0.00 in0.0 mm 0.00 in0.0 mm 0.33 in8.4 mm
09:10 PM 51.4°F10.8°C 49.0°F9.4°C 91% 3.8 mph SE6.1 kmh SE 11.0 mph17.7 kmh 29.93 in1013.5 mb 0.00 in0.0 mm 0.00 in0.0 mm 0.34 in8.6 mm
09:20 PM 51.3°F10.7°C 49.0°F9.4°C 92% 4.0 mph SE6.4 kmh SE 11.0 mph17.7 kmh 29.93 in1013.5 mb 0.08 in2.0 mm 0.48 in12.2 mm 0.35 in8.9 mm
09:30 PM 51.2°F10.7°C 49.0°F9.4°C 92% 4.1 mph E6.6 kmh E 10.0 mph16.1 kmh 29.94 in1013.9 mb 0.00 in0.0 mm 0.00 in0.0 mm 0.35 in8.9 mm
09:40 PM 51.0°F10.6°C 49.0°F9.4°C 92% 3.0 mph SE4.8 kmh SE 9.0 mph14.5 kmh 29.94 in1013.9 mb 0.00 in0.0 mm 0.00 in0.0 mm 0.35 in8.9 mm
09:50 PM 51.2°F10.7°C 49.0°F9.4°C 93% 4.8 mph E7.7 kmh E 14.0 mph22.5 kmh 29.94 in1013.9 mb 0.00 in0.0 mm 0.00 in0.0 mm 0.35 in8.9 mm
10:00 PM 51.3°F10.7°C 49.0°F9.4°C 92% 4.8 mph SSE7.7 kmh SSE 14.0 mph22.5 kmh 29.95 in1014.2 mb 0.00 in0.0 mm 0.00 in0.0 mm 0.35 in8.9 mm
10:10 PM 51.2°F10.7°C 49.0°F9.4°C 92% 4.7 mph N7.6 kmh N 14.0 mph22.5 kmh 29.95 in1014.2 mb 0.00 in0.0 mm 0.00 in0.0 mm 0.35 in8.9 mm
10:20 PM 51.0°F10.6°C 49.0°F9.4°C 92% 5.3 mph SSE8.5 kmh SSE 13.0 mph20.9 kmh 29.95 in1014.2 mb 0.00 in0.0 mm 0.00 in0.0 mm 0.36 in9.1 mm
10:30 PM 50.9°F10.5°C 49.0°F9.4°C 92% 6.0 mph SE9.7 kmh SE 15.0 mph24.1 kmh 29.95 in1014.2 mb 0.00 in0.0 mm 0.00 in0.0 mm 0.36 in9.1 mm
10:40 PM 50.9°F10.5°C 49.0°F9.4°C 92% 5.6 mph SSE9.0 kmh SSE 12.0 mph19.3 kmh 29.95 in1014.2 mb 0.00 in0.0 mm 0.00 in0.0 mm 0.36 in9.1 mm
10:50 PM 51.0°F10.6°C 49.0°F9.4°C 92% 4.0 mph SSE6.4 kmh SSE 10.0 mph16.1 kmh 29.95 in1014.2 mb 0.00 in0.0 mm 0.00 in0.0 mm 0.36 in9.1 mm
11:00 PM 51.0°F10.6°C 49.0°F9.4°C 92% 6.4 mph SSE10.3 kmh SSE 16.0 mph25.7 kmh 29.95 in1014.2 mb 0.00 in0.0 mm 0.00 in0.0 mm 0.36 in9.1 mm
11:10 PM 51.1°F10.6°C 49.0°F9.4°C 91% 6.4 mph SSE10.3 kmh SSE 14.0 mph22.5 kmh 29.95 in1014.2 mb 0.00 in0.0 mm 0.00 in0.0 mm 0.36 in9.1 mm
11:20 PM 51.1°F10.6°C 49.0°F9.4°C 91% 6.3 mph SSE10.1 kmh SSE 14.0 mph22.5 kmh 29.95 in1014.2 mb 0.00 in0.0 mm 0.00 in0.0 mm 0.36 in9.1 mm
11:30 PM 51.2°F10.7°C 49.0°F9.4°C 91% 6.2 mph SSE10.0 kmh SSE 12.0 mph19.3 kmh 29.96 in1014.6 mb 0.00 in0.0 mm 0.00 in0.0 mm 0.36 in9.1 mm
11:40 PM 51.2°F10.7°C 49.0°F9.4°C 91% 6.2 mph SE10.0 kmh SE 14.0 mph22.5 kmh 29.96 in1014.6 mb 0.00 in0.0 mm 0.00 in0.0 mm 0.36 in9.1 mm
11:50 PM 51.2°F10.7°C 49.0°F9.4°C 91% 4.4 mph NE7.1 kmh NE 9.0 mph14.5 kmh 29.96 in1014.6 mb 0.00 in0.0 mm 0.00 in0.0 mm 0.36 in9.1 mm